Time;durP1;ratioP1;P1;durP2;ratioP2;P2;SDS_P1;SDS_P2;PMS_P1;PMS_P2;Temp;Humidity;BMP_temperature;BMP_pressure;BME280_temperature;BME280_humidity;BME280_pressure;Samples;Min_cycle;Max_cycle;Signal;HPM_P1;HPM_P2
2023/09/09 00:00:50;;;;;;;4.13;2.75;;;15.80;99.90;;;;;;4902283;29;20060;-66
2023/09/09 00:03:17;;;;;;;;;;;15.80;99.90;;;;;;4908770;29;20147;-69
2023/09/09 00:05:44;;;;;;;3.15;2.83;;;15.80;99.90;;;;;;4901328;29;19930;-65
2023/09/09 00:08:11;;;;;;;4.32;2.78;;;15.70;99.90;;;;;;4900334;29;20415;-68
2023/09/09 00:10:38;;;;;;;4.22;3.17;;;15.70;99.90;;;;;;4905197;29;20578;-66
2023/09/09 00:13:06;;;;;;;3.85;2.60;;;15.70;99.90;;;;;;4900568;29;20497;-66
2023/09/09 00:15:33;;;;;;;7.82;3.60;;;15.70;99.90;;;;;;4903864;29;20048;-65
2023/09/09 00:18:02;;;;;;;4.97;2.42;;;15.70;99.90;;;;;;4906445;29;20064;-68
2023/09/09 00:20:35;;;;;;;4.50;3.50;;;15.70;99.90;;;;;;4903929;29;20041;-65
2023/09/09 00:23:12;;;;;;;3.28;2.97;;;15.70;99.90;;;;;;4908729;29;20048;-65
2023/09/09 00:25:41;;;;;;;4.10;3.10;;;15.70;99.90;;;;;;4906590;29;20418;-65
2023/09/09 00:28:10;;;;;;;5.82;4.07;;;15.70;99.90;;;;;;4913340;29;20048;-66
2023/09/09 00:30:38;;;;;;;4.60;3.40;;;15.70;99.90;;;;;;4905024;29;20541;-67
2023/09/09 00:33:07;;;;;;;4.65;2.97;;;15.70;99.90;;;;;;4897556;29;20064;-65
2023/09/09 00:35:38;;;;;;;5.63;3.60;;;15.70;99.90;;;;;;4914209;29;20551;-65
2023/09/09 00:38:08;;;;;;;;;;;15.70;99.90;;;;;;4907377;29;20056;-65
2023/09/09 00:40:35;;;;;;;5.10;4.00;;;15.60;99.90;;;;;;4902874;29;19938;-67
2023/09/09 00:43:02;;;;;;;6.82;3.50;;;15.70;99.90;;;;;;4911891;29;20578;-65
2023/09/09 00:45:30;;;;;;;3.95;3.65;;;15.70;99.90;;;;;;4910246;29;20454;-67
2023/09/09 00:47:57;;;;;;;7.03;4.50;;;15.70;99.90;;;;;;4893019;29;20099;-65
2023/09/09 00:50:24;;;;;;;6.57;3.35;;;15.60;99.90;;;;;;4911009;29;20075;-72
2023/09/09 00:52:52;;;;;;;4.70;3.95;;;15.60;99.90;;;;;;4908864;29;20079;-65
2023/09/09 00:55:19;;;;;;;5.40;3.35;;;15.60;99.90;;;;;;4911484;29;20055;-66
2023/09/09 00:57:46;;;;;;;4.68;3.17;;;15.60;99.90;;;;;;4911140;29;20060;-65
2023/09/09 01:00:13;;;;;;;8.10;3.97;;;15.60;99.90;;;;;;4909760;29;20051;-67
2023/09/09 01:02:40;;;;;;;5.80;4.68;;;15.60;99.90;;;;;;4908651;29;20044;-65
2023/09/09 01:05:10;;;;;;;5.45;4.50;;;15.60;99.90;;;;;;4910223;29;20075;-65
2023/09/09 01:07:48;;;;;;;8.45;3.40;;;15.60;99.90;;;;;;4908246;29;20055;-71
2023/09/09 01:10:18;;;;;;;4.00;3.33;;;15.60;99.90;;;;;;4912568;29;20127;-69
2023/09/09 01:12:45;;;;;;;3.63;3.30;;;15.60;99.90;;;;;;4906368;29;20147;-69
2023/09/09 01:15:13;;;;;;;3.80;3.50;;;15.60;99.90;;;;;;4912728;29;20044;-65
2023/09/09 01:17:41;;;;;;;5.78;3.17;;;15.60;99.90;;;;;;4910930;29;20059;-64
2023/09/09 01:20:16;;;;;;;4.35;3.95;;;15.60;99.90;;;;;;4898140;29;20058;-65
2023/09/09 01:22:46;;;;;;;6.53;4.80;;;15.60;99.90;;;;;;4910799;29;20049;-65
2023/09/09 01:25:13;;;;;;;4.78;3.85;;;15.60;99.90;;;;;;4911920;29;20067;-65
2023/09/09 01:27:41;;;;;;;5.50;4.95;;;15.50;99.90;;;;;;4905107;29;20096;-65
2023/09/09 01:30:09;;;;;;;6.47;4.78;;;15.50;99.90;;;;;;4905936;29;20060;-65
2023/09/09 01:32:36;;;;;;;5.22;4.13;;;15.50;99.90;;;;;;4893156;29;20371;-66
2023/09/09 01:35:04;;;;;;;4.90;4.07;;;15.50;99.90;;;;;;4908673;29;20536;-66
2023/09/09 01:37:32;;;;;;;4.05;3.65;;;15.50;99.90;;;;;;4907594;29;20478;-66
2023/09/09 01:40:09;;;;;;;4.95;4.22;;;15.50;99.90;;;;;;4890489;29;20052;-71
2023/09/09 01:42:37;;;;;;;5.45;4.90;;;15.50;99.90;;;;;;4909758;29;20067;-67
2023/09/09 01:45:06;;;;;;;6.25;5.65;;;15.50;99.90;;;;;;4891813;29;20064;-64
2023/09/09 01:47:33;;;;;;;8.13;7.15;;;15.50;99.90;;;;;;4904378;29;20505;-64
2023/09/09 01:50:01;;;;;;;6.78;5.00;;;15.40;99.90;;;;;;4904981;29;20713;-67
2023/09/09 01:52:28;;;;;;;8.43;6.47;;;15.40;99.90;;;;;;4906046;29;20056;-68
2023/09/09 01:54:55;;;;;;;8.02;5.90;;;15.40;99.90;;;;;;4907961;29;20060;-65
2023/09/09 01:57:26;;;;;;;7.40;5.72;;;15.30;99.90;;;;;;4905768;29;20127;-70
2023/09/09 01:59:54;;;;;;;5.50;4.95;;;15.40;99.90;;;;;;4912154;29;20147;-68
2023/09/09 02:02:21;;;;;;;6.82;5.80;;;15.30;99.90;;;;;;4902860;29;20060;-66
2023/09/09 02:04:48;;;;;;;7.43;5.47;;;15.30;99.90;;;;;;4909068;29;20526;-66
2023/09/09 02:07:15;;;;;;;5.70;5.18;;;15.30;99.90;;;;;;4893433;29;20044;-67
2023/09/09 02:09:42;;;;;;;5.53;5.03;;;15.30;99.90;;;;;;4892601;29;20053;-67
2023/09/09 02:12:09;;;;;;;5.18;4.60;;;15.20;99.90;;;;;;4908729;29;20048;-66
2023/09/09 02:14:37;;;;;;;6.20;5.60;;;15.20;99.90;;;;;;4883806;29;20897;-64
2023/09/09 02:17:04;;;;;;;5.88;4.20;;;15.20;99.90;;;;;;4902027;29;20730;-65
2023/09/09 02:19:31;;;;;;;4.57;3.95;;;15.20;99.90;;;;;;4908025;29;20043;-65
2023/09/09 02:21:58;;;;;;;4.78;4.38;;;15.20;99.90;;;;;;4888569;29;20064;-69
2023/09/09 02:24:25;;;;;;;5.28;4.32;;;15.20;99.90;;;;;;4903384;29;20052;-73
2023/09/09 02:26:52;;;;;;;5.05;4.28;;;15.20;99.90;;;;;;4905071;29;20806;-67
2023/09/09 02:29:19;;;;;;;4.55;4.15;;;15.20;99.90;;;;;;4900145;29;20120;-67
2023/09/09 02:31:46;;;;;;;4.93;4.40;;;15.20;99.90;;;;;;4895089;29;20071;-64
2023/09/09 02:34:13;;;;;;;3.88;3.55;;;15.20;99.90;;;;;;4905678;29;20067;-68
2023/09/09 02:36:44;;;;;;;4.32;3.33;;;15.10;99.90;;;;;;4907036;29;20063;-66
2023/09/09 02:39:11;;;;;;;4.45;4.10;;;15.10;99.90;;;;;;4900524;29;20103;-64
2023/09/09 02:41:38;;;;;;;4.88;4.38;;;15.10;99.90;;;;;;4900931;29;20159;-67
2023/09/09 02:44:05;;;;;;;3.80;3.50;;;15.10;99.90;;;;;;4889704;29;20159;-66
2023/09/09 02:46:32;;;;;;;5.10;3.47;;;15.00;99.90;;;;;;4887225;29;20052;-65
2023/09/09 02:48:59;;;;;;;4.80;4.40;;;15.00;99.90;;;;;;4905878;29;20072;-66
2023/09/09 02:51:26;;;;;;;5.28;4.85;;;15.00;99.90;;;;;;4886982;29;20072;-65
2023/09/09 02:53:53;;;;;;;4.90;4.15;;;15.00;99.90;;;;;;4903288;29;20052;-68
2023/09/09 02:56:20;;;;;;;4.88;4.25;;;15.00;99.90;;;;;;4904872;29;20059;-67
2023/09/09 02:58:47;;;;;;;4.30;3.90;;;15.00;99.90;;;;;;4905872;29;20055;-65
2023/09/09 03:01:14;;;;;;;5.32;4.88;;;15.00;99.90;;;;;;4888679;29;20108;-65
2023/09/09 03:03:41;;;;;;;5.32;4.82;;;15.00;99.90;;;;;;4892915;29;20058;-67
2023/09/09 03:06:10;;;;;;;6.53;5.90;;;14.90;99.90;;;;;;4902921;29;20495;-64
2023/09/09 03:08:37;;;;;;;6.72;5.72;;;14.90;99.90;;;;;;4906143;29;20075;-65
2023/09/09 03:11:04;;;;;;;7.55;6.32;;;14.90;99.90;;;;;;4885103;29;20051;-65
2023/09/09 03:13:31;;;;;;;6.25;5.65;;;14.80;99.90;;;;;;4888478;29;20409;-71
2023/09/09 03:15:58;;;;;;;6.93;5.80;;;14.80;99.90;;;;;;4902781;29;20115;-67
2023/09/09 03:18:25;;;;;;;7.25;5.95;;;14.80;99.90;;;;;;4885754;29;20048;-68
2023/09/09 03:20:52;;;;;;;8.07;6.57;;;14.80;99.90;;;;;;4906744;29;20055;-65
2023/09/09 03:23:19;;;;;;;6.15;5.55;;;14.80;99.90;;;;;;4889276;29;20087;-67
2023/09/09 03:25:46;;;;;;;5.75;5.15;;;14.80;99.90;;;;;;4906609;29;20060;-65
2023/09/09 03:28:13;;;;;;;5.95;5.35;;;14.70;99.90;;;;;;4904824;29;20590;-65
2023/09/09 03:30:55;;;;;;;5.82;5.28;;;14.70;99.90;;;;;;4887523;29;20052;-66
2023/09/09 03:33:27;;;;;;;6.15;5.55;;;14.70;99.90;;;;;;4897723;29;20854;-65
2023/09/09 03:35:54;;;;;;;5.28;4.78;;;14.70;99.90;;;;;;4889885;29;20052;-65
2023/09/09 03:38:21;;;;;;;6.60;6.00;;;14.60;99.90;;;;;;4906036;29;20139;-65
2023/09/09 03:40:48;;;;;;;6.60;5.85;;;14.60;99.90;;;;;;4901105;29;20052;-66
2023/09/09 03:43:15;;;;;;;6.82;6.13;;;14.60;99.90;;;;;;4887072;29;20053;-65
2023/09/09 03:45:42;;;;;;;6.35;5.75;;;14.60;99.90;;;;;;4899620;29;20103;-66
2023/09/09 03:48:09;;;;;;;7.15;6.20;;;14.60;99.90;;;;;;4892387;29;20111;-67
2023/09/09 03:50:36;;;;;;;6.95;6.25;;;14.60;99.90;;;;;;4909924;29;20079;-65
2023/09/09 03:53:03;;;;;;;6.30;5.68;;;14.50;99.90;;;;;;4898160;29;20064;-65
2023/09/09 03:55:32;;;;;;;8.00;7.13;;;14.50;99.90;;;;;;4887390;29;20080;-65
2023/09/09 03:57:59;;;;;;;7.97;7.18;;;14.50;99.90;;;;;;4892378;29;20167;-65
2023/09/09 04:00:26;;;;;;;6.22;5.60;;;14.50;99.90;;;;;;4900696;29;20084;-65
2023/09/09 04:02:53;;;;;;;7.55;6.68;;;14.40;99.90;;;;;;4890940;29;20076;-66
2023/09/09 04:05:20;;;;;;;5.70;5.15;;;14.40;99.90;;;;;;4901542;29;20075;-66
2023/09/09 04:07:47;;;;;;;7.47;5.95;;;14.40;99.90;;;;;;4890251;29;20066;-67
2023/09/09 04:10:15;;;;;;;6.78;6.13;;;14.40;99.90;;;;;;4888428;29;20068;-65
2023/09/09 04:12:42;;;;;;;5.45;4.95;;;14.40;99.90;;;;;;4902021;29;20051;-65
2023/09/09 04:15:10;;;;;;;6.25;4.80;;;14.30;99.90;;;;;;4886843;29;20132;-65
2023/09/09 04:17:38;;;;;;;6.90;6.13;;;14.40;99.90;;;;;;4906619;29;20055;-67
2023/09/09 04:20:08;;;;;;;7.65;6.05;;;14.30;99.90;;;;;;4883729;29;20144;-69
2023/09/09 04:22:36;;;;;;;5.97;5.38;;;14.30;99.90;;;;;;4886805;29;20147;-64
2023/09/09 04:25:03;;;;;;;7.75;7.07;;;14.30;99.90;;;;;;4897936;29;20072;-68
2023/09/09 04:27:31;;;;;;;7.15;5.38;;;14.40;99.90;;;;;;4887861;29;20048;-64
2023/09/09 04:29:58;;;;;;;8.10;7.30;;;14.40;99.90;;;;;;4883953;29;20468;-65
2023/09/09 04:32:26;;;;;;;7.55;6.72;;;14.40;99.90;;;;;;4900523;29;20064;-70
2023/09/09 04:34:53;;;;;;;7.25;6.47;;;14.40;99.90;;;;;;4903161;29;20067;-66
2023/09/09 04:37:20;;;;;;;7.75;7.05;;;14.50;99.90;;;;;;4899032;29;20079;-69
2023/09/09 04:39:47;;;;;;;7.60;7.00;;;14.50;99.90;;;;;;4885079;29;20107;-67
2023/09/09 04:42:16;;;;;;;8.98;7.40;;;14.60;99.90;;;;;;4888415;29;20044;-66
2023/09/09 04:44:44;;;;;;;7.93;7.22;;;14.60;99.90;;;;;;4887928;29;20060;-64
2023/09/09 04:47:11;;;;;;;8.23;7.38;;;14.70;99.90;;;;;;4891002;29;20490;-64
2023/09/09 04:49:38;;;;;;;10.43;8.00;;;14.70;99.90;;;;;;4903847;29;20048;-70
2023/09/09 04:52:05;;;;;;;8.00;7.20;;;14.70;99.90;;;;;;4890746;29;20517;-65
2023/09/09 04:54:32;;;;;;;12.27;9.02;;;14.80;99.90;;;;;;4900889;29;20507;-68
2023/09/09 04:56:59;;;;;;;7.28;6.57;;;14.80;99.90;;;;;;4902340;29;20103;-65
2023/09/09 04:59:26;;;;;;;8.15;7.35;;;14.80;99.90;;;;;;4909465;29;20494;-67
2023/09/09 05:01:53;;;;;;;11.82;9.40;;;14.90;99.90;;;;;;4903526;29;20840;-71
2023/09/09 05:04:20;;;;;;;6.43;5.78;;;14.90;99.90;;;;;;4899889;29;20104;-68
2023/09/09 05:06:47;;;;;;;15.88;8.15;;;14.90;99.90;;;;;;4900403;29;20067;-66
2023/09/09 05:09:14;;;;;;;9.50;7.55;;;14.90;99.90;;;;;;4889251;29;20062;-67
2023/09/09 05:11:41;;;;;;;11.30;7.68;;;15.00;99.90;;;;;;4905671;29;20138;-64
2023/09/09 05:14:08;;;;;;;11.18;6.00;;;15.00;99.90;;;;;;4908932;29;20048;-67
2023/09/09 05:16:37;;;;;;;7.18;6.47;;;15.00;99.90;;;;;;4911368;29;20107;-70
2023/09/09 05:19:04;;;;;;;9.65;7.47;;;15.00;99.90;;;;;;4904215;29;20521;-66
2023/09/09 05:21:31;;;;;;;8.02;6.85;;;15.10;99.90;;;;;;4907571;29;20128;-66
2023/09/09 05:23:58;;;;;;;7.07;6.47;;;15.10;99.90;;;;;;4910773;29;20111;-69
2023/09/09 05:26:25;;;;;;;6.60;5.93;;;15.10;99.90;;;;;;4890453;29;20144;-68
2023/09/09 05:28:52;;;;;;;6.72;5.95;;;15.20;99.90;;;;;;4910098;29;20632;-64
2023/09/09 05:31:19;;;;;;;10.40;7.63;;;15.20;99.90;;;;;;4890409;29;20175;-67
2023/09/09 05:33:46;;;;;;;5.97;5.38;;;15.30;99.90;;;;;;4909669;29;20056;-64
2023/09/09 05:36:13;;;;;;;5.72;5.22;;;15.30;99.90;;;;;;4887830;29;20515;-68
2023/09/09 05:38:41;;;;;;;7.60;6.30;;;15.40;99.90;;;;;;4905115;29;20056;-67
2023/09/09 05:41:08;;;;;;;5.47;4.97;;;15.40;99.90;;;;;;4911474;29;20082;-68
2023/09/09 05:43:35;;;;;;;5.95;5.13;;;15.50;99.90;;;;;;4908909;29;20047;-64
2023/09/09 05:46:03;;;;;;;6.55;5.65;;;15.50;99.90;;;;;;4890719;29;20442;-71
2023/09/09 05:48:31;;;;;;;5.50;5.00;;;15.60;99.90;;;;;;4891329;29;20119;-65
2023/09/09 05:50:58;;;;;;;7.25;5.38;;;15.60;99.90;;;;;;4899891;29;20056;-65
2023/09/09 05:53:26;;;;;;;5.95;5.40;;;15.60;99.90;;;;;;4906357;29;20071;-68
2023/09/09 05:55:53;;;;;;;5.25;4.43;;;15.70;99.90;;;;;;4901637;29;20546;-65
2023/09/09 05:58:20;;;;;;;6.47;4.70;;;15.70;99.90;;;;;;4906081;29;20079;-66
2023/09/09 06:00:47;;;;;;;6.07;5.47;;;15.80;99.90;;;;;;4907028;29;20150;-66
2023/09/09 06:03:14;;;;;;;7.30;5.53;;;15.90;99.90;;;;;;4889037;29;20055;-65
2023/09/09 06:05:41;;;;;;;6.60;5.43;;;15.90;99.90;;;;;;4910420;29;20056;-66
2023/09/09 06:08:08;;;;;;;5.10;4.15;;;15.90;99.90;;;;;;4891764;29;20084;-68
2023/09/09 06:10:35;;;;;;;4.72;4.32;;;15.90;99.90;;;;;;4903367;29;20049;-67
2023/09/09 06:13:02;;;;;;;5.90;5.20;;;16.00;99.90;;;;;;4900632;29;20055;-67
2023/09/09 06:15:29;;;;;;;4.88;4.47;;;16.00;99.90;;;;;;4905569;29;20131;-73
2023/09/09 06:17:57;;;;;;;3.97;3.60;;;16.00;99.90;;;;;;4904846;29;20055;-65
2023/09/09 06:20:24;;;;;;;5.90;4.47;;;16.00;99.90;;;;;;4901956;29;20099;-65
2023/09/09 06:22:51;;;;;;;4.55;4.15;;;16.00;99.90;;;;;;4886531;29;20079;-67
2023/09/09 06:25:19;;;;;;;5.13;4.72;;;16.10;99.90;;;;;;4891448;29;20056;-65
2023/09/09 06:27:46;;;;;;;5.57;3.85;;;16.10;99.90;;;;;;4901533;29;20096;-67
2023/09/09 06:30:13;;;;;;;5.93;3.80;;;16.10;99.90;;;;;;4902690;29;20100;-66
2023/09/09 06:32:40;;;;;;;5.35;4.20;;;16.10;99.90;;;;;;4902750;29;20083;-65
2023/09/09 06:35:07;;;;;;;4.22;3.80;;;16.20;99.90;;;;;;4886143;29;20510;-66
2023/09/09 06:37:34;;;;;;;6.40;4.80;;;16.30;99.90;;;;;;4905297;29;20052;-66
2023/09/09 06:40:01;;;;;;;4.95;4.55;;;16.30;99.90;;;;;;4900671;29;20052;-67
2023/09/09 06:42:28;;;;;;;4.05;3.50;;;16.30;99.90;;;;;;4903067;29;20048;-67
2023/09/09 06:45:00;;;;;;;7.28;4.72;;;16.40;99.90;;;;;;4888744;29;20059;-70
2023/09/09 06:47:27;;;;;;;5.35;3.95;;;16.40;99.90;;;;;;4902902;29;20040;-65
2023/09/09 06:49:54;;;;;;;4.80;3.55;;;16.50;99.90;;;;;;4907449;29;20471;-65
2023/09/09 06:52:21;;;;;;;5.40;4.90;;;16.50;99.90;;;;;;4905420;29;20049;-68
2023/09/09 06:54:47;;;;;;;4.55;4.15;;;16.60;99.90;;;;;;4903262;29;20472;-68
2023/09/09 06:57:14;;;;;;;5.32;4.05;;;16.70;99.90;;;;;;4904971;29;20124;-65
2023/09/09 06:59:41;;;;;;;4.10;3.67;;;16.70;99.90;;;;;;4907507;29;20056;-70
2023/09/09 07:02:09;;;;;;;5.05;4.18;;;16.80;99.90;;;;;;4903921;29;20060;-68
2023/09/09 07:04:36;;;;;;;4.25;3.85;;;16.90;99.90;;;;;;4907900;29;20048;-66
2023/09/09 07:07:03;;;;;;;6.43;3.88;;;16.90;99.90;;;;;;4887869;29;20055;-66
2023/09/09 07:09:40;;;;;;;4.50;4.03;;;16.90;99.90;;;;;;4903332;29;20060;-66
2023/09/09 07:12:09;;;;;;;5.25;4.63;;;17.00;99.90;;;;;;4909715;29;20135;-67
2023/09/09 07:14:36;;;;;;;11.97;4.57;;;17.10;99.90;;;;;;4907450;29;20047;-64
2023/09/09 07:17:07;;;;;;;4.95;4.45;;;17.20;99.90;;;;;;4903680;29;20323;-68
2023/09/09 07:19:34;;;;;;;5.68;4.50;;;17.20;99.90;;;;;;4908208;29;20044;-65
2023/09/09 07:22:01;;;;;;;4.88;4.38;;;17.30;99.90;;;;;;4886162;29;20843;-68
2023/09/09 07:24:28;;;;;;;5.70;5.10;;;17.40;99.90;;;;;;4906009;29;20183;-66
2023/09/09 07:26:57;;;;;;;6.38;4.45;;;17.40;99.90;;;;;;4908343;29;20044;-65
2023/09/09 07:29:24;;;;;;;4.40;4.00;;;17.50;99.90;;;;;;4905198;29;20058;-71
2023/09/09 07:31:51;;;;;;;5.40;3.70;;;17.60;99.90;;;;;;4904523;29;20107;-69
2023/09/09 07:34:19;;;;;;;5.97;4.72;;;17.60;99.90;;;;;;4906468;29;20103;-75
2023/09/09 07:36:47;;;;;;;6.70;5.18;;;17.60;99.90;;;;;;4889834;29;20100;-67
2023/09/09 07:39:14;;;;;;;3.88;3.20;;;17.70;99.90;;;;;;4900039;29;20100;-71
2023/09/09 07:41:41;;;;;;;4.32;3.72;;;17.80;99.90;;;;;;4904162;29;20111;-68
2023/09/09 07:44:08;;;;;;;5.90;4.15;;;17.80;99.90;;;;;;4907930;29;20139;-70
2023/09/09 07:46:35;;;;;;;6.47;4.38;;;17.90;99.90;;;;;;4898726;29;20048;-68
2023/09/09 07:49:02;;;;;;;4.72;4.32;;;18.00;99.90;;;;;;4906125;29;20156;-70
2023/09/09 07:51:29;;;;;;;5.07;3.83;;;18.10;99.90;;;;;;4902101;29;20068;-69
2023/09/09 07:53:56;;;;;;;3.65;3.22;;;18.20;99.90;;;;;;4902878;29;20048;-69
2023/09/09 07:56:23;;;;;;;6.32;3.95;;;18.30;99.90;;;;;;4904872;29;20104;-73
2023/09/09 07:58:50;;;;;;;4.60;4.20;;;18.40;99.90;;;;;;4905729;29;20059;-68
2023/09/09 08:01:17;;;;;;;4.78;4.28;;;18.50;99.90;;;;;;4906234;29;20083;-71
2023/09/09 08:03:44;;;;;;;3.38;2.97;;;18.60;99.90;;;;;;4907307;29;20056;-74
2023/09/09 08:06:11;;;;;;;5.57;4.40;;;18.60;99.90;;;;;;4900854;29;20072;-69
2023/09/09 08:08:38;;;;;;;4.03;3.08;;;18.70;99.90;;;;;;4907651;29;20124;-67
2023/09/09 08:11:05;;;;;;;7.05;4.78;;;18.80;99.90;;;;;;4905172;29;20052;-69
2023/09/09 08:13:32;;;;;;;3.97;3.45;;;19.00;99.90;;;;;;4904922;29;20533;-68
2023/09/09 08:15:59;;;;;;;4.43;4.03;;;19.10;99.90;;;;;;4902134;29;20052;-70
2023/09/09 08:18:27;;;;;;;4.00;3.38;;;19.20;99.90;;;;;;4900917;29;20044;-70
2023/09/09 08:20:54;;;;;;;5.10;2.70;;;19.30;99.90;;;;;;4899514;29;20060;-68
2023/09/09 08:23:22;;;;;;;5.43;4.95;;;19.40;99.90;;;;;;4903474;29;20064;-70
2023/09/09 08:25:49;;;;;;;4.25;3.60;;;19.60;99.90;;;;;;4904107;29;20398;-71
2023/09/09 08:28:16;;;;;;;3.50;3.20;;;19.60;99.90;;;;;;4905341;29;20128;-67
2023/09/09 08:30:46;;;;;;;3.67;3.38;;;19.70;99.90;;;;;;4908375;29;20052;-68
2023/09/09 08:33:13;;;;;;;3.88;3.50;;;19.80;99.90;;;;;;4906580;29;20044;-70
2023/09/09 08:35:40;;;;;;;6.00;4.38;;;19.90;99.90;;;;;;4910936;29;20064;-70
2023/09/09 08:38:07;;;;;;;2.95;2.75;;;20.10;99.90;;;;;;4903493;29;20475;-67
2023/09/09 08:40:44;;;;;;;3.05;2.85;;;20.20;99.90;;;;;;4903963;29;20056;-69
2023/09/09 08:43:23;;;;;;;3.97;3.13;;;20.30;99.90;;;;;;4905776;29;20100;-75
2023/09/09 08:46:07;;;;;;;3.35;3.05;;;20.40;99.90;;;;;;4908155;29;20615;-70
2023/09/09 08:48:37;;;;;;;2.75;2.55;;;20.50;99.90;;;;;;4906758;29;20044;-68
2023/09/09 08:51:06;;;;;;;5.85;2.88;;;20.70;99.90;;;;;;4909708;29;20403;-69
2023/09/09 08:53:35;;;;;;;4.00;3.33;;;20.70;99.90;;;;;;4905007;29;20048;-70
2023/09/09 08:56:03;;;;;;;3.90;2.78;;;20.80;99.90;;;;;;4907797;29;20048;-68
2023/09/09 08:58:30;;;;;;;3.22;2.47;;;20.90;99.90;;;;;;4911509;29;20138;-73
2023/09/09 09:00:59;;;;;;;3.03;2.72;;;21.00;99.90;;;;;;4886154;29;20495;-71
2023/09/09 09:03:27;;;;;;;2.85;2.63;;;21.00;99.90;;;;;;4904645;29;20044;-70
2023/09/09 09:05:54;;;;;;;2.92;2.63;;;21.00;99.90;;;;;;4903571;29;20506;-69
2023/09/09 09:08:21;;;;;;;9.35;5.43;;;21.00;99.90;;;;;;4907062;29;20048;-70
2023/09/09 09:10:48;;;;;;;3.42;3.13;;;21.00;99.90;;;;;;4907099;29;20055;-68
2023/09/09 09:13:16;;;;;;;4.38;3.20;;;21.00;99.90;;;;;;4908174;29;20051;-69
2023/09/09 09:15:43;;;;;;;2.90;2.70;;;21.10;99.90;;;;;;4907884;29;20049;-68
2023/09/09 09:18:09;;;;;;;3.13;2.83;;;21.10;99.90;;;;;;4907590;29;20052;-67
2023/09/09 09:20:38;;;;;;;3.70;3.40;;;21.20;99.90;;;;;;4905091;29;20120;-71
2023/09/09 09:23:06;;;;;;;5.35;2.60;;;21.20;99.90;;;;;;4903596;29;20056;-71
2023/09/09 09:25:39;;;;;;;3.35;2.90;;;21.10;99.90;;;;;;4910142;29;20494;-68
2023/09/09 09:28:06;;;;;;;3.22;2.92;;;21.10;99.90;;;;;;4907492;29;20483;-70
2023/09/09 09:30:33;;;;;;;2.70;2.40;;;21.00;99.90;;;;;;4906859;29;20036;-68
2023/09/09 09:33:01;;;;;;;3.53;3.22;;;21.00;99.90;;;;;;4905432;29;20056;-69
2023/09/09 09:35:29;;;;;;;3.25;2.95;;;20.90;99.90;;;;;;4906252;29;20051;-70
2023/09/09 09:37:57;;;;;;;3.72;3.42;;;20.90;99.90;;;;;;4905916;29;20044;-68
2023/09/09 09:40:25;;;;;;;5.30;3.63;;;20.80;99.90;;;;;;4905677;29;20519;-72
2023/09/09 09:42:53;;;;;;;4.07;3.67;;;20.70;99.90;;;;;;4908386;29;20040;-68
2023/09/09 09:45:27;;;;;;;3.88;3.58;;;20.70;99.90;;;;;;4905274;29;20048;-68
2023/09/09 09:47:55;;;;;;;3.47;3.17;;;20.80;99.90;;;;;;4906097;29;20047;-70
2023/09/09 09:50:34;;;;;;;2.95;2.75;;;20.70;99.90;;;;;;4912455;29;20490;-70
2023/09/09 09:53:01;;;;;;;4.47;4.07;;;20.80;99.90;;;;;;4905367;29;20123;-69
2023/09/09 09:55:30;;;;;;;5.55;4.00;;;20.60;99.90;;;;;;4900956;29;20131;-74
2023/09/09 09:58:07;;;;;;;7.40;5.28;;;20.70;99.90;;;;;;4910492;29;20119;-67
2023/09/09 10:00:34;;;;;;;4.57;3.63;;;20.60;99.90;;;;;;4907168;29;20108;-68
2023/09/09 10:03:02;;;;;;;4.20;3.72;;;20.50;99.90;;;;;;4901460;29;20048;-71
2023/09/09 10:05:37;;;;;;;4.30;3.90;;;20.50;99.90;;;;;;4904600;29;20067;-71
2023/09/09 10:08:35;;;;;;;4.28;3.47;;;20.60;99.90;;;;;;4907198;29;20171;-71
2023/09/09 10:11:07;;;;;;;5.00;4.28;;;20.80;99.90;;;;;;4906642;29;20507;-71
2023/09/09 10:13:45;;;;;;;6.57;4.60;;;20.90;99.90;;;;;;4909154;29;20048;-71
2023/09/09 10:16:14;;;;;;;3.88;3.40;;;20.90;99.90;;;;;;4908380;29;20052;-68
2023/09/09 10:18:42;;;;;;;4.10;3.80;;;21.00;99.90;;;;;;4904699;29;20100;-67
2023/09/09 10:21:12;;;;;;;4.45;3.72;;;21.10;99.90;;;;;;4903367;29;20507;-68
2023/09/09 10:23:40;;;;;;;4.25;3.90;;;21.10;99.90;;;;;;4897566;29;20452;-74
2023/09/09 10:26:07;;;;;;;12.68;3.97;;;21.20;99.90;;;;;;4906078;29;20081;-68
2023/09/09 10:28:35;;;;;;;4.40;4.00;;;21.10;99.90;;;;;;4905181;29;20491;-67
2023/09/09 10:31:04;;;;;;;4.40;4.07;;;21.00;99.90;;;;;;4909901;29;20052;-71
2023/09/09 10:33:31;;;;;;;4.53;3.65;;;20.90;99.90;;;;;;4906862;29;20139;-68
2023/09/09 10:35:58;;;;;;;5.40;4.90;;;20.80;99.90;;;;;;4907600;29;20503;-67
2023/09/09 10:38:26;;;;;;;5.05;4.63;;;20.90;99.90;;;;;;4906004;29;20099;-74
2023/09/09 10:40:53;;;;;;;5.03;4.63;;;21.00;99.90;;;;;;4908592;29;20132;-72
2023/09/09 10:43:20;;;;;;;5.72;5.22;;;21.00;99.90;;;;;;4902423;29;20668;-70
2023/09/09 10:45:50;;;;;;;6.20;5.70;;;21.00;99.90;;;;;;4904204;29;20044;-68
2023/09/09 10:48:21;;;;;;;;;;;21.00;99.90;;;;;;4905474;29;20493;-68
2023/09/09 10:50:51;;;;;;;6.13;5.30;;;21.00;99.90;;;;;;4904923;29;19927;-75
2023/09/09 10:53:22;;;;;;;4.75;4.35;;;21.10;99.90;;;;;;4904689;29;20076;-67
2023/09/09 10:55:53;;;;;;;8.52;5.32;;;21.20;99.90;;;;;;4908364;29;20048;-70
2023/09/09 10:58:29;;;;;;;6.22;5.63;;;21.30;99.90;;;;;;4905848;29;20131;-73
2023/09/09 11:00:57;;;;;;;5.72;5.22;;;21.20;99.90;;;;;;4904421;29;20134;-68
2023/09/09 11:03:29;;;;;;;5.95;5.00;;;21.30;99.90;;;;;;4905634;29;20048;-72
2023/09/09 11:06:00;;;;;;;6.13;5.53;;;21.30;99.90;;;;;;4903721;29;20048;-71
2023/09/09 11:08:44;;;;;;;6.00;5.00;;;21.40;99.90;;;;;;4902058;29;20054;-68
2023/09/09 11:11:23;;;;;;;5.63;5.10;;;21.40;99.90;;;;;;4909246;29;20036;-68
2023/09/09 11:14:00;;;;;;;4.55;4.10;;;21.50;99.90;;;;;;4907037;29;20048;-67
2023/09/09 11:16:34;;;;;;;5.70;4.55;;;21.60;99.90;;;;;;4904185;29;20505;-74
2023/09/09 11:19:08;;;;;;;6.28;3.90;;;21.70;99.90;;;;;;4902370;29;20464;-70
2023/09/09 11:21:47;;;;;;;4.25;3.95;;;21.80;99.90;;;;;;4904185;29;20053;-68
2023/09/09 11:24:14;;;;;;;3.80;3.50;;;22.00;99.90;;;;;;4907231;29;20151;-70
2023/09/09 11:26:46;;;;;;;3.83;3.22;;;22.10;99.90;;;;;;4907603;29;20067;-71
2023/09/09 11:29:15;;;;;;;4.85;3.10;;;22.20;99.90;;;;;;4907547;29;20063;-67
2023/09/09 11:32:00;;;;;;;5.60;3.88;;;22.30;99.90;;;;;;4903110;29;20056;-69
2023/09/09 11:34:32;;;;;;;3.53;3.20;;;22.40;99.90;;;;;;4906062;29;20058;-72
2023/09/09 11:37:04;;;;;;;3.55;3.25;;;22.50;99.90;;;;;;4907011;29;20052;-70
2023/09/09 11:39:39;;;;;;;3.45;3.15;;;22.60;99.90;;;;;;4904434;29;20045;-71
2023/09/09 11:42:06;;;;;;;3.95;3.60;;;22.60;99.90;;;;;;4903204;29;20548;-69
2023/09/09 11:44:43;;;;;;;4.03;3.58;;;22.70;99.90;;;;;;4907191;29;20083;-68
2023/09/09 11:47:10;;;;;;;3.22;3.03;;;22.70;99.90;;;;;;4902808;29;20055;-70
2023/09/09 11:49:40;;;;;;;3.83;3.53;;;22.70;99.90;;;;;;4904889;29;20075;-73
2023/09/09 11:52:08;;;;;;;3.75;3.45;;;22.60;99.90;;;;;;4907000;29;20044;-68
2023/09/09 11:54:36;;;;;;;3.80;3.50;;;22.70;99.90;;;;;;4902214;29;20057;-69
2023/09/09 11:57:07;;;;;;;3.83;3.53;;;22.70;99.90;;;;;;4905012;29;20044;-76
2023/09/09 11:59:48;;;;;;;3.65;3.35;;;22.70;99.90;;;;;;4906753;29;20071;-69
2023/09/09 12:02:19;;;;;;;4.38;3.97;;;22.80;99.90;;;;;;4908235;29;20056;-68
2023/09/09 12:05:01;;;;;;;4.07;3.67;;;22.90;99.90;;;;;;4903036;29;20060;-69
2023/09/09 12:07:33;;;;;;;3.75;3.45;;;22.90;99.90;;;;;;4901844;29;20070;-68
2023/09/09 12:10:04;;;;;;;3.85;3.53;;;22.90;99.90;;;;;;4899099;29;20269;-73
2023/09/09 12:12:31;;;;;;;4.65;3.83;;;23.00;99.90;;;;;;4906688;29;20111;-72
2023/09/09 12:15:00;;;;;;;3.80;3.50;;;23.00;99.90;;;;;;4904239;29;20059;-68
2023/09/09 12:17:28;;;;;;;3.35;3.05;;;23.00;99.90;;;;;;4902808;29;20541;-73
2023/09/09 12:19:57;;;;;;;4.75;4.35;;;23.00;99.90;;;;;;4906431;29;20475;-71
2023/09/09 12:22:52;;;;;;;3.17;2.97;;;23.00;99.90;;;;;;4906316;29;20048;-73
2023/09/09 12:25:33;;;;;;;4.07;3.78;;;23.10;99.90;;;;;;4901678;29;20064;-68
2023/09/09 12:28:01;;;;;;;4.70;3.47;;;23.20;99.90;;;;;;4902656;29;20118;-68
2023/09/09 12:30:38;;;;;;;4.97;4.47;;;23.30;99.90;;;;;;4902242;29;20048;-73
2023/09/09 12:33:12;;;;;;;3.88;3.38;;;23.50;99.90;;;;;;4906240;29;20048;-71
2023/09/09 12:35:42;;;;;;;3.60;3.30;;;23.70;99.90;;;;;;4902099;29;20559;-67
2023/09/09 12:38:10;;;;;;;3.78;3.45;;;23.90;99.90;;;;;;4902647;29;20183;-70
2023/09/09 12:41:04;;;;;;;3.60;3.30;;;23.90;99.90;;;;;;4898762;29;20044;-68
2023/09/09 12:43:32;;;;;;;4.95;3.65;;;24.10;99.90;;;;;;4901579;29;20060;-69
2023/09/09 12:46:03;;;;;;;3.17;2.97;;;24.20;99.90;;;;;;4902742;29;20096;-69
2023/09/09 12:48:34;;;;;;;3.50;3.20;;;24.40;99.90;;;;;;4903153;29;20048;-68
2023/09/09 12:51:01;;;;;;;4.10;2.92;;;24.50;99.90;;;;;;4905965;29;20062;-70
2023/09/09 12:53:28;;;;;;;5.72;3.53;;;24.70;99.90;;;;;;4904736;29;20052;-69
2023/09/09 12:55:55;;;;;;;3.85;3.55;;;24.80;99.90;;;;;;4908035;29;20119;-68